createdAt,value
2022-09-12T00:01:13.617Z,22.60
2022-09-12T00:03:41.252Z,22.50
2022-09-12T00:06:11.869Z,22.50
2022-09-12T00:08:39.599Z,22.50
2022-09-12T00:11:09.628Z,22.40
2022-09-12T00:13:41.665Z,22.40
2022-09-12T00:16:17.171Z,22.40
2022-09-12T00:18:46.527Z,22.30
2022-09-12T00:21:14.908Z,22.30
2022-09-12T00:23:42.430Z,22.30
2022-09-12T00:26:09.938Z,22.30
2022-09-12T00:28:38.849Z,22.30
2022-09-12T00:31:12.224Z,22.30
2022-09-12T00:33:40.359Z,22.30
2022-09-12T00:36:14.539Z,22.30
2022-09-12T00:38:43.193Z,22.20
2022-09-12T00:41:32.179Z,22.20
2022-09-12T00:44:12.859Z,22.20
2022-09-12T00:46:50.878Z,22.20
2022-09-12T00:49:39.111Z,22.20
2022-09-12T00:52:08.999Z,22.20
2022-09-12T00:54:55.928Z,22.20
2022-09-12T00:57:28.230Z,22.10
2022-09-12T01:00:20.831Z,22.10
2022-09-12T01:02:53.368Z,22.10
2022-09-12T01:05:22.638Z,22.10
2022-09-12T01:07:52.008Z,22.00
2022-09-12T01:10:20.618Z,22.00
2022-09-12T01:12:48.862Z,22.10
2022-09-12T01:15:16.389Z,22.10
2022-09-12T01:17:57.989Z,22.10
2022-09-12T01:20:51.758Z,22.10
2022-09-12T01:24:09.709Z,22.10
2022-09-12T01:27:07.959Z,22.00
2022-09-12T01:30:04.844Z,22.00
2022-09-12T01:33:04.459Z,22.00
2022-09-12T01:35:35.498Z,22.00
2022-09-12T01:38:05.899Z,22.00
2022-09-12T01:41:02.159Z,22.00
2022-09-12T01:44:05.020Z,22.00
2022-09-12T01:46:41.389Z,21.90
2022-09-12T01:49:20.128Z,21.90
2022-09-12T01:52:18.929Z,21.80
2022-09-12T01:54:59.939Z,21.80
2022-09-12T01:57:43.469Z,21.80
2022-09-12T02:00:12.410Z,21.70
2022-09-12T02:03:15.101Z,21.70
2022-09-12T02:05:54.270Z,21.70
2022-09-12T02:08:31.719Z,21.70
2022-09-12T02:11:06.890Z,21.70
2022-09-12T02:13:48.089Z,21.70
2022-09-12T02:16:20.772Z,21.70
2022-09-12T02:18:53.769Z,21.70
2022-09-12T02:21:23.869Z,21.70
2022-09-12T02:24:02.560Z,21.70
2022-09-12T02:26:35.689Z,21.70
2022-09-12T02:29:04.758Z,21.70
2022-09-12T02:31:32.118Z,21.70
2022-09-12T02:34:20.349Z,21.70
2022-09-12T02:37:06.030Z,21.70
2022-09-12T02:39:34.019Z,21.70
2022-09-12T02:42:02.429Z,21.70
2022-09-12T02:44:32.928Z,21.70
2022-09-12T02:47:09.060Z,21.60
2022-09-12T02:49:36.518Z,21.60
2022-09-12T02:52:04.642Z,21.60
2022-09-12T02:54:32.649Z,21.60
2022-09-12T02:57:00.019Z,21.60
2022-09-12T02:59:27.689Z,21.60
2022-09-12T03:02:06.159Z,21.60
2022-09-12T03:05:07.612Z,21.60
2022-09-12T03:07:51.058Z,21.50
2022-09-12T03:10:37.119Z,21.50
2022-09-12T03:13:24.879Z,21.50
2022-09-12T03:16:08.853Z,21.50
2022-09-12T03:19:03.973Z,21.50
2022-09-12T03:21:43.130Z,21.50
2022-09-12T03:24:21.761Z,21.50
2022-09-12T03:26:55.439Z,21.50
2022-09-12T03:29:24.959Z,21.50
2022-09-12T03:31:55.768Z,21.50
2022-09-12T03:34:24.749Z,21.50
2022-09-12T03:36:52.989Z,21.50
2022-09-12T03:39:21.279Z,21.50
2022-09-12T03:41:48.679Z,21.50
2022-09-12T03:44:16.259Z,21.60
2022-09-12T03:46:43.719Z,21.60
2022-09-12T03:49:11.428Z,21.60
2022-09-12T03:51:40.093Z,21.60
2022-09-12T03:54:07.748Z,21.60
2022-09-12T03:56:36.249Z,21.60
2022-09-12T03:59:07.078Z,21.60
2022-09-12T04:01:34.811Z,21.60
2022-09-12T04:04:02.395Z,21.60
2022-09-12T04:06:30.115Z,21.70
2022-09-12T04:08:57.504Z,21.60
2022-09-12T04:11:25.063Z,21.60
2022-09-12T04:13:52.776Z,21.60
2022-09-12T04:16:20.756Z,21.60
2022-09-12T04:18:48.377Z,21.60
2022-09-12T04:21:19.584Z,21.60
2022-09-12T04:23:47.015Z,21.60
2022-09-12T04:26:14.865Z,21.50
2022-09-12T04:28:42.735Z,21.50
2022-09-12T04:31:20.285Z,21.50
2022-09-12T04:33:48.024Z,21.50
2022-09-12T04:36:17.664Z,21.50
2022-09-12T04:38:46.697Z,21.50
2022-09-12T04:41:16.511Z,21.40
2022-09-12T04:43:46.725Z,21.40
2022-09-12T04:46:16.294Z,21.40
2022-09-12T04:48:44.414Z,21.40
2022-09-12T04:51:17.882Z,21.30
2022-09-12T04:53:50.045Z,21.30
2022-09-12T04:56:17.946Z,21.30
2022-09-12T04:58:45.285Z,21.30
2022-09-12T05:01:18.441Z,21.20
2022-09-12T05:03:47.298Z,21.20
2022-09-12T05:06:23.786Z,21.20
2022-09-12T05:08:52.936Z,21.20
2022-09-12T05:11:25.434Z,21.10
2022-09-12T05:13:54.411Z,21.10
2022-09-12T05:16:22.876Z,21.10
2022-09-12T05:18:50.519Z,21.10
2022-09-12T05:21:21.399Z,21.10
2022-09-12T05:23:56.819Z,21.10
2022-09-12T05:26:24.597Z,21.10
2022-09-12T05:28:53.166Z,21.10
2022-09-12T05:31:29.455Z,21.10
2022-09-12T05:33:57.905Z,21.20
2022-09-12T05:36:30.545Z,21.20
2022-09-12T05:38:59.828Z,21.20
2022-09-12T05:41:34.065Z,21.20
2022-09-12T05:44:04.066Z,21.20
2022-09-12T05:46:36.146Z,21.20
2022-09-12T05:49:05.207Z,21.20
2022-09-12T05:51:35.485Z,21.20
2022-09-12T05:54:04.495Z,21.20
2022-09-12T05:56:34.426Z,21.30
2022-09-12T05:59:04.206Z,21.30
2022-09-12T06:01:33.830Z,21.30
2022-09-12T06:04:04.176Z,21.30
2022-09-12T06:06:32.837Z,21.40
2022-09-12T06:09:02.136Z,21.40
2022-09-12T06:11:33.480Z,21.40
2022-09-12T06:14:01.707Z,21.40
2022-09-12T06:16:33.650Z,21.50
2022-09-12T06:19:22.575Z,21.50
2022-09-12T06:21:51.826Z,21.60
2022-09-12T06:24:20.306Z,21.70
2022-09-12T06:26:52.901Z,21.70
2022-09-12T06:29:20.246Z,21.80
2022-09-12T06:31:47.585Z,21.90
2022-09-12T06:34:16.697Z,21.90
2022-09-12T06:36:48.945Z,22.00
2022-09-12T06:39:18.610Z,22.10
2022-09-12T06:41:46.475Z,22.20
2022-09-12T06:44:22.580Z,22.30
2022-09-12T06:47:08.985Z,22.40
2022-09-12T06:49:36.656Z,22.50
2022-09-12T06:52:04.053Z,22.60
2022-09-12T06:54:31.357Z,22.70
2022-09-12T06:56:58.794Z,22.80
2022-09-12T06:59:26.253Z,22.80
2022-09-12T07:01:53.575Z,22.90
2022-09-12T07:04:21.005Z,23.00
2022-09-12T07:06:48.305Z,23.10
2022-09-12T07:09:18.426Z,23.10
2022-09-12T07:11:46.611Z,23.20
2022-09-12T07:14:15.196Z,23.30
2022-09-12T07:16:42.834Z,23.30
2022-09-12T07:19:10.797Z,23.40
2022-09-12T07:21:40.627Z,23.50
2022-09-12T07:24:11.946Z,23.60
2022-09-12T07:26:40.785Z,23.70
2022-09-12T07:29:35.478Z,23.70
2022-09-12T07:32:02.015Z,23.80
2022-09-12T07:34:29.338Z,24.00
2022-09-12T07:36:56.627Z,24.10
2022-09-12T07:39:23.906Z,24.20
2022-09-12T07:41:51.605Z,24.20
2022-09-12T07:44:18.865Z,24.40
2022-09-12T07:46:46.395Z,24.50
2022-09-12T07:49:13.795Z,24.70
2022-09-12T07:51:41.355Z,24.90
2022-09-12T07:54:09.576Z,25.00
2022-09-12T07:56:39.354Z,25.20
2022-09-12T07:59:07.836Z,25.40
2022-09-12T08:01:35.541Z,25.60
2022-09-12T08:04:05.061Z,25.80
2022-09-12T08:06:36.169Z,25.90
2022-09-12T08:09:05.096Z,26.00
2022-09-12T08:11:32.625Z,26.30
2022-09-12T08:14:01.966Z,26.50
2022-09-12T08:16:33.226Z,26.70
2022-09-12T08:19:02.192Z,27.00
2022-09-12T08:21:33.736Z,27.20
2022-09-12T08:24:04.142Z,27.50
2022-09-12T08:26:32.909Z,27.80
2022-09-12T08:29:00.499Z,27.90
2022-09-12T08:31:28.590Z,28.10
2022-09-12T08:33:57.484Z,28.30
2022-09-12T08:36:27.909Z,28.40
2022-09-12T08:39:00.029Z,28.70
2022-09-12T08:41:38.265Z,28.90
2022-09-12T08:44:09.358Z,29.10
2022-09-12T08:46:48.750Z,29.20
2022-09-12T08:49:45.996Z,29.50
2022-09-12T08:52:29.874Z,29.90
2022-09-12T08:54:57.676Z,30.20
2022-09-12T08:57:24.975Z,30.40
2022-09-12T08:59:53.376Z,30.40
2022-09-12T09:02:42.666Z,30.60
2022-09-12T09:05:23.545Z,30.80
2022-09-12T09:08:27.056Z,31.00
2022-09-12T09:11:37.747Z,31.30
2022-09-12T09:14:32.476Z,31.30
2022-09-12T09:17:01.029Z,31.50
2022-09-12T09:19:38.177Z,31.50
2022-09-12T09:22:13.191Z,31.70
2022-09-12T09:24:53.535Z,31.80
2022-09-12T09:27:45.917Z,32.00
2022-09-12T09:30:19.212Z,32.10
2022-09-12T09:32:58.515Z,32.30
2022-09-12T09:35:44.208Z,32.40
2022-09-12T09:38:37.807Z,32.60
2022-09-12T09:41:33.218Z,32.80
2022-09-12T09:44:01.207Z,33.00
2022-09-12T09:46:28.761Z,33.20
2022-09-12T09:48:59.495Z,33.20
2022-09-12T09:51:32.563Z,33.30
2022-09-12T09:54:13.873Z,33.40
2022-09-12T09:56:45.285Z,33.50
2022-09-12T09:59:34.418Z,33.70
2022-09-12T10:02:24.414Z,34.00
2022-09-12T10:04:57.817Z,34.00
2022-09-12T10:07:27.445Z,34.00
2022-09-12T10:10:14.466Z,34.10
2022-09-12T10:12:42.205Z,34.20
2022-09-12T10:15:26.701Z,34.30
2022-09-12T10:17:55.984Z,34.50
2022-09-12T10:20:37.517Z,34.50
2022-09-12T10:23:37.904Z,34.50
2022-09-12T10:26:19.247Z,34.50
2022-09-12T10:28:56.165Z,34.60
2022-09-12T10:31:39.285Z,34.80
2022-09-12T10:34:06.865Z,34.90
2022-09-12T10:36:39.806Z,34.90
2022-09-12T10:39:16.299Z,34.90
2022-09-12T10:41:43.670Z,35.00
2022-09-12T10:44:28.027Z,35.10
2022-09-12T10:46:56.085Z,35.20
2022-09-12T10:49:25.080Z,35.30
2022-09-12T10:51:54.551Z,35.50
2022-09-12T10:54:25.096Z,35.40
2022-09-12T10:56:58.370Z,35.50
2022-09-12T10:59:42.850Z,35.60
2022-09-12T11:02:33.420Z,35.80
2022-09-12T11:05:19.490Z,35.90
2022-09-12T11:08:03.924Z,35.90
2022-09-12T11:10:37.310Z,35.60
2022-09-12T11:13:24.004Z,35.60
2022-09-12T11:16:21.929Z,35.40
2022-09-12T11:19:19.999Z,35.60
2022-09-12T11:22:00.401Z,35.40
2022-09-12T11:24:36.400Z,35.30
2022-09-12T11:27:36.052Z,35.30
2022-09-12T11:30:10.296Z,35.20
2022-09-12T11:33:01.621Z,35.30
2022-09-12T11:35:31.873Z,35.60
2022-09-12T11:38:13.900Z,35.80
2022-09-12T11:40:52.363Z,35.90
2022-09-12T11:43:25.520Z,36.00
2022-09-12T11:45:53.775Z,36.10
2022-09-12T11:48:46.947Z,36.20
2022-09-12T11:51:38.710Z,36.10
2022-09-12T11:54:23.430Z,35.90
2022-09-12T11:57:02.283Z,36.00
2022-09-12T11:59:39.432Z,36.00
2022-09-12T12:02:15.299Z,35.70
2022-09-12T12:05:15.470Z,35.60
2022-09-12T12:07:54.583Z,35.80
2022-09-12T12:10:43.070Z,36.00
2022-09-12T12:13:21.990Z,36.30
2022-09-12T12:15:53.721Z,36.40
2022-09-12T12:18:29.040Z,36.50
2022-09-12T12:20:57.388Z,36.40
2022-09-12T12:23:34.580Z,36.30
2022-09-12T12:26:04.671Z,36.00
2022-09-12T12:28:50.530Z,35.90
2022-09-12T12:31:18.634Z,35.70
2022-09-12T12:33:45.774Z,35.60
2022-09-12T12:36:39.761Z,35.50
2022-09-12T12:39:31.832Z,35.40
2022-09-12T12:42:00.281Z,35.20
2022-09-12T12:44:45.964Z,35.20
2022-09-12T12:47:19.107Z,35.20
2022-09-12T12:50:00.470Z,35.30
2022-09-12T12:52:32.680Z,35.30
2022-09-12T12:55:04.890Z,35.20
2022-09-12T12:58:00.038Z,35.10
2022-09-12T13:00:32.241Z,35.00
2022-09-12T13:02:59.900Z,34.80
2022-09-12T13:05:30.845Z,34.60
2022-09-12T13:08:28.755Z,34.60
2022-09-12T13:11:07.502Z,34.40
2022-09-12T13:13:57.252Z,34.40
2022-09-12T13:16:37.200Z,34.30
2022-09-12T13:19:08.170Z,34.30
2022-09-12T13:21:35.572Z,34.20
2022-09-12T13:24:16.020Z,34.10
2022-09-12T13:26:47.071Z,34.10
2022-09-12T13:29:22.623Z,34.10
2022-09-12T13:31:59.360Z,34.10
2022-09-12T13:34:41.892Z,34.00
2022-09-12T13:37:24.553Z,34.00
2022-09-12T13:40:15.873Z,33.90
2022-09-12T13:42:48.872Z,33.90
2022-09-12T13:45:20.440Z,33.70
2022-09-12T13:47:54.291Z,33.70
2022-09-12T13:50:27.860Z,33.70
2022-09-12T13:53:03.754Z,33.70
2022-09-12T13:55:36.801Z,33.80
2022-09-12T13:58:06.571Z,34.00
2022-09-12T14:00:35.115Z,34.20
2022-09-12T14:03:32.000Z,34.30
2022-09-12T14:05:59.730Z,34.40
2022-09-12T14:08:27.320Z,34.40
2022-09-12T14:10:54.890Z,34.40
2022-09-12T14:13:26.460Z,34.40
2022-09-12T14:15:56.234Z,34.40
2022-09-12T14:18:28.720Z,34.40
2022-09-12T14:20:57.710Z,34.50
2022-09-12T15:24:50.660Z,34.80
2022-09-12T15:27:17.833Z,34.70
2022-09-12T15:29:44.971Z,34.70
2022-09-12T15:32:22.631Z,34.70
2022-09-12T15:34:49.900Z,34.70
2022-09-12T15:37:18.251Z,34.80
2022-09-12T15:39:46.858Z,34.80
2022-09-12T15:42:15.510Z,34.90
2022-09-12T15:44:43.236Z,34.90
2022-09-12T15:47:14.030Z,34.90
2022-09-12T15:49:41.411Z,35.00
2022-09-12T15:52:15.050Z,34.90
2022-09-12T15:54:43.400Z,34.90
2022-09-12T15:57:10.590Z,34.90
2022-09-12T15:59:37.810Z,34.80
2022-09-12T16:02:05.102Z,34.70
2022-09-12T16:04:32.350Z,34.70
2022-09-12T16:06:59.562Z,34.60
2022-09-12T16:09:26.770Z,34.60
2022-09-12T16:11:53.931Z,34.60
2022-09-12T16:14:21.458Z,34.50
2022-09-12T16:16:56.201Z,34.50
2022-09-12T16:19:23.500Z,34.50
2022-09-12T16:21:50.850Z,34.50
2022-09-12T16:24:18.040Z,34.50
2022-09-12T16:26:45.351Z,34.50
2022-09-12T16:29:14.012Z,34.50
2022-09-12T16:31:41.431Z,34.50
2022-09-12T16:34:08.730Z,34.60
2022-09-12T16:36:35.849Z,34.60
2022-09-12T16:39:03.269Z,34.60
2022-09-12T16:41:30.519Z,34.60
2022-09-12T16:43:57.780Z,34.60
2022-09-12T16:46:30.922Z,34.60
2022-09-12T16:48:59.130Z,34.60
2022-09-12T16:51:36.092Z,34.60
2022-09-12T16:54:04.186Z,34.60
2022-09-12T16:56:31.501Z,34.50
2022-09-12T16:58:58.808Z,34.50
2022-09-12T17:01:26.921Z,34.40
2022-09-12T17:03:56.803Z,34.30
2022-09-12T17:06:25.569Z,34.20
2022-09-12T17:08:54.491Z,34.10
2022-09-12T17:11:27.350Z,34.00
2022-09-12T17:14:11.752Z,34.00
2022-09-12T17:16:50.741Z,33.90
2022-09-12T17:19:26.713Z,33.80
2022-09-12T17:21:54.626Z,33.70
2022-09-12T17:24:23.209Z,33.70
2022-09-12T17:26:51.760Z,33.60
2022-09-12T17:29:19.150Z,33.60
2022-09-12T17:31:46.711Z,33.50
2022-09-12T17:34:17.909Z,33.40
2022-09-12T17:36:46.090Z,33.20
2022-09-12T17:39:14.351Z,33.10
2022-09-12T17:41:42.927Z,32.90
2022-09-12T17:44:15.326Z,32.90
2022-09-12T17:46:43.674Z,32.70
2022-09-12T17:49:16.058Z,32.60
2022-09-12T17:51:44.452Z,32.40
2022-09-12T17:54:15.830Z,32.20
2022-09-12T17:56:44.530Z,32.00
2022-09-12T17:59:16.210Z,31.90
2022-09-12T18:02:02.300Z,31.80
2022-09-12T18:04:29.989Z,31.70
2022-09-12T18:06:57.970Z,31.60
2022-09-12T18:09:25.410Z,31.50
2022-09-12T18:11:53.333Z,31.40
2022-09-12T18:14:21.012Z,31.30
2022-09-12T18:16:48.750Z,31.30
2022-09-12T18:19:17.001Z,31.20
2022-09-12T18:21:44.290Z,31.10
2022-09-12T18:24:12.359Z,31.00
2022-09-12T18:26:39.810Z,30.90
2022-09-12T18:29:07.931Z,30.90
2022-09-12T18:31:35.567Z,30.80
2022-09-12T18:34:03.010Z,30.70
2022-09-12T18:36:31.005Z,30.60
2022-09-12T18:41:41.089Z,30.60
2022-09-12T18:44:10.370Z,30.60
2022-09-12T18:46:38.034Z,30.50
2022-09-12T18:49:05.729Z,30.50
2022-09-12T18:51:36.115Z,30.50
2022-09-12T18:54:09.093Z,30.30
2022-09-12T18:59:20.100Z,30.30
2022-09-12T19:01:47.661Z,30.30
2022-09-12T19:04:16.485Z,30.30
2022-09-12T19:06:46.601Z,30.20
2022-09-12T19:09:16.452Z,30.10
2022-09-12T19:11:49.790Z,30.10
2022-09-12T19:14:19.973Z,30.10
2022-09-12T19:16:47.211Z,30.10
2022-09-12T19:19:14.480Z,30.10
2022-09-12T19:21:42.324Z,30.10
2022-09-12T19:24:10.476Z,30.00
2022-09-12T19:26:39.152Z,30.00
2022-09-12T19:29:07.300Z,29.90
2022-09-12T19:31:35.186Z,29.90
2022-09-12T19:34:04.761Z,29.80
2022-09-12T19:36:48.123Z,29.70
2022-09-12T19:39:19.756Z,29.60
2022-09-12T19:41:48.193Z,29.60
2022-09-12T19:44:15.596Z,29.60
2022-09-12T19:46:43.043Z,29.60
2022-09-12T19:51:53.090Z,29.60
2022-09-12T19:54:20.430Z,29.60
2022-09-12T19:56:47.830Z,29.50
2022-09-12T19:59:15.070Z,29.40
2022-09-12T20:01:42.500Z,29.40
2022-09-12T20:04:10.010Z,29.30
2022-09-12T20:06:37.390Z,29.30
2022-09-12T20:09:05.113Z,29.20
2022-09-12T20:11:32.430Z,29.20
2022-09-12T20:13:59.770Z,29.00
2022-09-12T20:16:29.807Z,29.00
2022-09-12T20:19:03.947Z,28.90
2022-09-12T20:21:33.132Z,28.80
2022-09-12T20:24:20.571Z,28.70
2022-09-12T20:26:47.980Z,28.60
2022-09-12T20:29:15.310Z,28.60
2022-09-12T20:31:43.418Z,28.60
2022-09-12T20:34:20.431Z,28.50
2022-09-12T20:36:48.380Z,28.50
2022-09-12T20:39:18.363Z,28.50
2022-09-12T20:41:46.531Z,28.50
2022-09-12T20:44:13.909Z,28.40
2022-09-12T20:46:41.968Z,28.40
2022-09-12T20:49:09.291Z,28.40
2022-09-12T20:51:36.850Z,28.40
2022-09-12T20:54:06.071Z,28.30
2022-09-12T20:56:36.630Z,28.30
2022-09-12T20:59:05.083Z,28.20
2022-09-12T21:01:33.111Z,28.10
2022-09-12T21:04:01.411Z,28.00
2022-09-12T21:06:29.010Z,27.90
2022-09-12T21:09:00.678Z,27.90
2022-09-12T21:11:28.862Z,27.80
2022-09-12T21:13:56.390Z,27.70
2022-09-12T21:16:24.238Z,27.70
2022-09-12T21:18:59.728Z,27.70
2022-09-12T21:21:27.151Z,27.60
2022-09-12T21:23:58.531Z,27.60
2022-09-12T21:26:26.130Z,27.60
2022-09-12T21:28:53.361Z,27.50
2022-09-12T21:31:21.217Z,27.50
2022-09-12T21:33:49.405Z,27.50
2022-09-12T21:36:16.840Z,27.50
2022-09-12T21:38:44.150Z,27.50
2022-09-12T21:41:14.030Z,27.50
2022-09-12T21:43:42.065Z,27.50
2022-09-12T21:46:10.200Z,27.50
2022-09-12T21:48:37.790Z,27.50
2022-09-12T21:51:05.355Z,27.50
2022-09-12T21:53:32.610Z,27.50
2022-09-12T21:56:05.092Z,27.50
2022-09-12T22:01:13.725Z,27.50
2022-09-12T22:03:43.212Z,27.60
2022-09-12T22:06:10.543Z,27.60
2022-09-12T22:08:39.084Z,27.60
2022-09-12T22:11:09.735Z,27.60
2022-09-12T22:13:43.564Z,27.60
2022-09-12T22:16:11.382Z,27.60
2022-09-12T22:18:38.725Z,27.60
2022-09-12T22:21:17.760Z,27.60
2022-09-12T22:24:03.643Z,27.60
2022-09-12T22:26:35.185Z,27.60
2022-09-12T22:29:02.543Z,27.60
2022-09-12T22:31:29.825Z,27.60
2022-09-12T22:33:59.847Z,27.60
2022-09-12T22:36:30.908Z,27.60
2022-09-12T22:38:59.566Z,27.70
2022-09-12T22:41:26.903Z,27.70
2022-09-12T22:43:54.175Z,27.70
2022-09-12T22:46:21.382Z,27.80
2022-09-12T22:48:48.624Z,27.90
2022-09-12T22:51:15.845Z,28.00
2022-09-12T22:53:43.493Z,28.10
2022-09-12T22:56:10.751Z,28.20
2022-09-12T22:58:38.485Z,28.10
2022-09-12T23:01:06.971Z,27.90
2022-09-12T23:03:35.359Z,27.70
2022-09-12T23:06:03.527Z,27.50
2022-09-12T23:08:30.754Z,27.30
2022-09-12T23:11:06.203Z,27.20
2022-09-12T23:13:34.023Z,27.10
2022-09-12T23:16:03.684Z,27.00
2022-09-12T23:18:31.013Z,26.90
2022-09-12T23:21:06.215Z,26.80
2022-09-12T23:23:33.683Z,26.70
2022-09-12T23:26:07.993Z,26.60
2022-09-12T23:28:35.994Z,26.50
2022-09-12T23:31:03.584Z,26.40
2022-09-12T23:33:32.024Z,26.40
2022-09-12T23:36:05.223Z,26.30
2022-09-12T23:38:33.714Z,26.20
2022-09-12T23:41:01.733Z,26.20
2022-09-12T23:43:29.353Z,26.10
2022-09-12T23:45:57.057Z,26.10
2022-09-12T23:48:24.565Z,26.10
2022-09-12T23:50:51.954Z,26.10
2022-09-12T23:53:20.563Z,26.10
2022-09-12T23:55:48.103Z,26.10
2022-09-12T23:58:15.821Z,26.10
